Terminal Aerodrome Forecast
Issued by NWS

Home | Current Version | Previous Version | Text Only | Print | Product List | Glossary On
Versions: 1 2 3 4 5 6 7 8 9
000
FTUS44 KCRP 262300
TAFLRD
TAF
KLRD 262329Z 2700/2724 17007KT P6SM SCT030 BKN200
     FM270900 14004KT 5SM BR SCT005 BKN100
      TEMPO 2712/2714 2SM BR
     FM271600 27006KT P6SM SCT025 BKN250
     FM272300 36012G18KT P6SM BKN020 OVC250=

USA.gov is the U.S. government's official web portal to all federal, state and local government web resources and services.